createdAt,value
2023-05-15T00:04:33.139Z,10.60
2023-05-15T00:09:40.784Z,11.50
2023-05-15T00:14:48.632Z,12.40
2023-05-15T00:19:59.739Z,11.60
2023-05-15T00:25:08.676Z,12.50
2023-05-15T00:30:17.789Z,13.60
2023-05-15T00:35:25.697Z,13.10
2023-05-15T00:40:35.872Z,11.30
2023-05-15T00:45:46.034Z,11.80
2023-05-15T00:50:53.773Z,10.10
2023-05-15T00:56:05.084Z,11.50
2023-05-15T01:01:12.774Z,11.20
2023-05-15T01:06:20.175Z,11.20
2023-05-15T01:11:36.073Z,9.60
2023-05-15T01:16:43.420Z,26.10
2023-05-15T01:22:20.702Z,11.40
2023-05-15T01:27:32.078Z,12.50
2023-05-15T01:32:45.038Z,13.40
2023-05-15T01:37:58.432Z,13.90
2023-05-15T01:43:09.971Z,13.60
2023-05-15T01:48:19.778Z,12.60
2023-05-15T01:53:28.654Z,10.80
2023-05-15T01:58:38.475Z,14.50
2023-05-15T02:03:48.763Z,13.90
2023-05-15T02:08:59.593Z,15.20
2023-05-15T02:14:08.933Z,12.90
2023-05-15T02:19:16.812Z,15.30
2023-05-15T02:24:24.971Z,14.40
2023-05-15T02:29:38.439Z,10.90
2023-05-15T02:34:54.539Z,15.20
2023-05-15T02:40:07.385Z,13.90
2023-05-15T02:45:19.710Z,13.40
2023-05-15T02:50:27.801Z,14.00
2023-05-15T02:55:36.428Z,13.10
2023-05-15T03:00:43.848Z,9.50
2023-05-15T03:05:51.350Z,13.20
2023-05-15T03:10:59.674Z,13.20
2023-05-15T03:16:07.973Z,12.80
2023-05-15T03:21:15.835Z,10.80
2023-05-15T03:26:25.092Z,11.10
2023-05-15T03:31:32.696Z,12.10
2023-05-15T03:36:40.325Z,12.40
2023-05-15T03:41:47.674Z,11.70
2023-05-15T03:46:55.383Z,13.30
2023-05-15T03:52:03.297Z,11.30
2023-05-15T03:57:11.310Z,10.60
2023-05-15T04:02:18.600Z,10.60
2023-05-15T04:07:26.512Z,11.20
2023-05-15T04:12:36.963Z,11.90
2023-05-15T04:17:44.780Z,12.00
2023-05-15T04:22:52.857Z,11.90
2023-05-15T04:28:00.486Z,13.30
2023-05-15T04:33:08.079Z,12.40
2023-05-15T04:38:16.405Z,13.70
2023-05-15T04:43:25.676Z,15.40
2023-05-15T04:48:33.654Z,15.50
2023-05-15T04:53:42.107Z,13.40
2023-05-15T04:58:49.390Z,13.60
2023-05-15T05:03:57.070Z,14.40
2023-05-15T05:09:05.084Z,12.70
2023-05-15T05:14:13.037Z,13.80
2023-05-15T05:19:20.710Z,13.80
2023-05-15T05:24:29.086Z,15.00
2023-05-15T05:29:37.378Z,14.70
2023-05-15T05:34:45.072Z,14.70
2023-05-15T05:39:52.580Z,13.70
2023-05-15T05:45:00.376Z,13.20
2023-05-15T05:50:11.471Z,14.00
2023-05-15T05:55:18.888Z,14.40
2023-05-15T06:00:28.594Z,14.30
2023-05-15T06:05:36.301Z,14.40
2023-05-15T06:10:45.758Z,13.80
2023-05-15T06:15:54.143Z,14.20
2023-05-15T06:21:01.940Z,14.80
2023-05-15T06:26:09.404Z,13.90
2023-05-15T06:31:17.934Z,16.60
2023-05-15T06:36:25.461Z,13.70
2023-05-15T06:41:33.442Z,14.00
2023-05-15T06:46:41.497Z,15.00
2023-05-15T06:51:49.130Z,19.00
2023-05-15T06:56:59.355Z,19.10
2023-05-15T07:02:07.723Z,16.90
2023-05-15T07:07:15.789Z,17.30
2023-05-15T07:12:23.326Z,15.70
2023-05-15T07:17:31.880Z,15.20
2023-05-15T07:22:51.957Z,14.70
2023-05-15T07:28:03.084Z,13.10
2023-05-15T07:33:11.377Z,11.60
2023-05-15T07:38:18.960Z,13.60
2023-05-15T07:43:26.622Z,9.10
2023-05-15T07:48:34.671Z,11.10
2023-05-15T07:53:42.537Z,11.20
2023-05-15T07:58:50.030Z,10.80
2023-05-15T08:03:58.835Z,10.80
2023-05-15T08:09:06.841Z,10.10
2023-05-15T08:14:14.142Z,12.10
2023-05-15T08:19:22.279Z,11.40
2023-05-15T08:24:29.618Z,10.30
2023-05-15T08:30:04.813Z,9.80
2023-05-15T08:35:12.924Z,8.50
2023-05-15T08:40:25.675Z,9.50
2023-05-15T08:45:42.696Z,9.30
2023-05-15T08:50:53.053Z,10.30
2023-05-15T08:56:01.285Z,10.00
2023-05-15T09:01:09.507Z,9.00
2023-05-15T09:06:17.516Z,9.90
2023-05-15T09:11:26.269Z,9.10
2023-05-15T09:16:34.117Z,9.10
2023-05-15T09:21:41.561Z,8.60
2023-05-15T09:36:24.858Z,8.90
2023-05-15T09:41:32.612Z,8.90
2023-05-15T09:46:40.193Z,9.60
2023-05-15T09:51:50.991Z,8.90
2023-05-15T09:57:10.550Z,8.50
2023-05-15T10:02:28.552Z,7.40
2023-05-15T10:07:39.035Z,7.80
2023-05-15T10:12:48.342Z,9.30
2023-05-15T10:17:56.342Z,7.30
2023-05-15T10:23:07.533Z,7.10
2023-05-15T10:28:15.996Z,6.80
2023-05-15T10:33:24.615Z,5.90
2023-05-15T10:38:35.116Z,6.20
2023-05-15T10:43:44.907Z,7.00
2023-05-15T10:48:57.239Z,6.30
2023-05-15T10:54:05.605Z,6.90
2023-05-15T10:59:13.914Z,6.70
2023-05-15T11:04:26.847Z,6.30
2023-05-15T11:09:41.714Z,7.10
2023-05-15T11:15:21.900Z,5.70
2023-05-15T11:20:39.829Z,5.60
2023-05-15T11:25:58.828Z,6.10
2023-05-15T11:31:10.989Z,6.00
2023-05-15T11:36:18.841Z,5.70
2023-05-15T11:41:34.411Z,5.10
2023-05-15T11:46:44.397Z,4.60
2023-05-15T11:51:54.382Z,5.70
2023-05-15T11:57:02.752Z,7.30
2023-05-15T12:02:11.172Z,8.30
2023-05-15T12:07:18.984Z,8.50
2023-05-15T12:12:28.752Z,8.60
2023-05-15T12:17:37.919Z,8.80
2023-05-15T12:22:46.129Z,6.60
2023-05-15T12:27:54.384Z,8.40
2023-05-15T12:33:04.761Z,7.80
2023-05-15T12:38:15.627Z,6.70
2023-05-15T12:43:26.066Z,6.30
2023-05-15T12:48:37.741Z,6.10
2023-05-15T12:53:48.194Z,5.50
2023-05-15T12:58:57.240Z,6.80
2023-05-15T13:04:04.962Z,5.90
2023-05-15T13:09:12.931Z,5.70
2023-05-15T13:14:23.200Z,4.80
2023-05-15T13:19:36.394Z,5.20
2023-05-15T13:24:48.458Z,6.10
2023-05-15T13:29:56.385Z,8.40
2023-05-15T13:35:05.273Z,9.60
2023-05-15T13:40:14.316Z,8.40
2023-05-15T13:45:21.991Z,10.80
2023-05-15T13:50:29.816Z,8.90
2023-05-15T13:55:37.689Z,8.30
2023-05-15T14:00:46.254Z,10.20
2023-05-15T14:05:54.061Z,8.00
2023-05-15T14:11:01.453Z,7.50
2023-05-15T14:16:09.884Z,7.10
2023-05-15T14:21:17.462Z,7.70
2023-05-15T14:26:25.256Z,7.40
2023-05-15T14:31:32.987Z,7.50
2023-05-15T14:36:40.814Z,7.00
2023-05-15T14:41:52.068Z,8.80
2023-05-15T14:47:13.825Z,5.70
2023-05-15T14:52:22.729Z,5.80
2023-05-15T14:57:30.294Z,5.80
2023-05-15T15:02:38.050Z,5.20
2023-05-15T15:08:04.588Z,5.50
2023-05-15T15:13:14.169Z,4.80
2023-05-15T15:18:22.395Z,5.00
2023-05-15T15:23:30.387Z,5.60
2023-05-15T15:28:37.913Z,5.30
2023-05-15T15:33:45.595Z,4.20
2023-05-15T15:38:53.245Z,5.90
2023-05-15T15:44:03.709Z,6.30
2023-05-15T15:49:14.656Z,6.30
2023-05-15T15:54:21.915Z,5.10
2023-05-15T15:59:29.623Z,6.40
2023-05-15T16:04:37.531Z,5.70
2023-05-15T16:09:44.756Z,5.60
2023-05-15T16:14:53.319Z,6.20
2023-05-15T16:20:00.939Z,5.80
2023-05-15T16:25:09.869Z,4.70
2023-05-15T16:30:18.333Z,4.90
2023-05-15T16:35:26.970Z,3.60
2023-05-15T16:40:34.375Z,4.30
2023-05-15T16:45:41.705Z,4.50
2023-05-15T16:50:49.395Z,3.80
2023-05-15T16:55:57.087Z,3.80
2023-05-15T17:01:04.287Z,3.60
2023-05-15T17:06:11.980Z,3.60
2023-05-15T17:11:19.847Z,4.00
2023-05-15T17:16:27.279Z,3.80
2023-05-15T17:21:35.517Z,3.20
2023-05-15T17:26:43.275Z,3.70
2023-05-15T17:31:51.212Z,4.70
2023-05-15T17:36:59.040Z,4.50
2023-05-15T17:42:07.554Z,4.70
2023-05-15T17:47:15.797Z,4.10
2023-05-15T17:52:23.990Z,4.50
2023-05-15T17:57:33.695Z,4.60
2023-05-15T18:02:41.234Z,5.20
2023-05-15T18:07:49.523Z,4.20
2023-05-15T18:12:57.268Z,5.00
2023-05-15T18:18:05.436Z,3.60
2023-05-15T18:23:13.010Z,4.30
2023-05-15T18:28:20.659Z,4.40
2023-05-15T18:33:29.866Z,4.60
2023-05-15T18:38:37.294Z,4.60
2023-05-15T18:43:44.704Z,4.60
2023-05-15T18:48:52.171Z,3.60
2023-05-15T18:54:00.023Z,3.40
2023-05-15T18:59:07.473Z,3.70
2023-05-15T19:04:14.810Z,2.50
2023-05-15T19:09:22.307Z,3.60
2023-05-15T19:14:29.875Z,3.70
2023-05-15T19:19:37.247Z,3.80
2023-05-15T19:24:44.742Z,3.90
2023-05-15T19:29:52.749Z,4.10
2023-05-15T19:35:00.576Z,4.30
2023-05-15T19:40:10.994Z,3.70
2023-05-15T19:45:19.800Z,5.20
2023-05-15T19:50:27.554Z,4.70
2023-05-15T19:55:36.130Z,4.30
2023-05-15T20:00:43.992Z,4.60
2023-05-15T20:05:52.271Z,4.00
2023-05-15T20:11:02.579Z,5.10
2023-05-15T20:16:13.019Z,4.60
2023-05-15T20:21:20.818Z,4.80
2023-05-15T20:26:31.345Z,5.40
2023-05-15T20:31:40.638Z,4.90
2023-05-15T20:36:48.445Z,4.40
2023-05-15T20:41:56.919Z,5.20
2023-05-15T20:47:06.259Z,4.60
2023-05-15T20:52:14.424Z,3.50
2023-05-15T20:57:24.270Z,3.90
2023-05-15T21:02:32.368Z,5.00
2023-05-15T21:07:40.134Z,5.40
2023-05-15T21:12:47.736Z,5.50
2023-05-15T21:17:55.145Z,5.70
2023-05-15T21:23:04.751Z,5.20
2023-05-15T21:28:14.123Z,4.80
2023-05-15T21:33:21.832Z,4.50
2023-05-15T21:38:30.074Z,5.10
2023-05-15T21:43:37.377Z,4.90
2023-05-15T21:48:45.148Z,5.10
2023-05-15T21:53:54.251Z,4.90
2023-05-15T21:59:01.848Z,5.50
2023-05-15T22:04:09.263Z,5.40
2023-05-15T22:09:18.505Z,5.00
2023-05-15T22:14:25.811Z,4.90
2023-05-15T22:19:34.240Z,5.20
2023-05-15T22:24:42.075Z,5.90
2023-05-15T22:29:51.835Z,5.60
2023-05-15T22:34:59.694Z,5.80
2023-05-15T22:40:08.680Z,5.20
2023-05-15T22:45:18.301Z,6.30
2023-05-15T22:54:46.802Z,7.20
2023-05-15T22:59:55.408Z,7.10
2023-05-15T23:05:02.842Z,7.00
2023-05-15T23:10:12.803Z,6.40
2023-05-15T23:15:20.742Z,6.20
2023-05-15T23:20:29.021Z,6.90
2023-05-15T23:25:41.477Z,6.50
2023-05-15T23:30:49.139Z,6.70
2023-05-15T23:35:56.978Z,6.50
2023-05-15T23:41:04.837Z,6.00
2023-05-15T23:46:12.692Z,6.20
2023-05-15T23:51:20.788Z,6.30
2023-05-15T23:56:28.604Z,6.80
